Aviation Digital Data Service (ADDS)

Output produced by METARs form (2213 UTC 27 April 2015)
found at http://aviationweather.gov/adds/metars/
 
KROA 271729Z 2718/2818 31012G22KT P6SM SCT060 
     FM280200 32006KT P6SM SCT070 
     FM281500 03005KT P6SM SCT040